Time;durP1;ratioP1;P1;durP2;ratioP2;P2;SDS_P1;SDS_P2;PMS_P1;PMS_P2;Temp;Humidity;BMP_temperature;BMP_pressure;BME280_temperature;BME280_humidity;BME280_pressure;Samples;Min_cycle;Max_cycle;Signal;HPM_P1;HPM_P2
2022/11/24 00:00:44;;;;;;;29.13;5.97;;;;;;;6.67;100.00;100127.56;5283691;28;20021;-73
2022/11/24 00:03:15;;;;;;;19.33;5.73;;;;;;;6.60;100.00;100132.78;5284059;28;20049;-72
2022/11/24 00:05:47;;;;;;;20.60;5.17;;;;;;;6.62;100.00;100128.44;5282533;28;20032;-73
2022/11/24 00:08:18;;;;;;;22.87;5.97;;;;;;;6.61;100.00;100129.34;5283447;28;20538;-72
2022/11/24 00:10:50;;;;;;;21.63;5.50;;;;;;;6.58;100.00;100132.78;5282154;28;20050;-72
2022/11/24 00:13:21;;;;;;;24.30;5.80;;;;;;;6.59;100.00;100126.75;5283216;28;20032;-73
2022/11/24 00:15:52;;;;;;;21.63;5.33;;;;;;;6.59;100.00;100136.25;5283777;28;20387;-73
2022/11/24 00:18:24;;;;;;;22.10;5.87;;;;;;;6.58;100.00;100140.56;5282623;28;20552;-72
2022/11/24 00:20:55;;;;;;;16.87;5.07;;;;;;;6.59;100.00;100157.84;5283250;28;20044;-72
2022/11/24 00:23:26;;;;;;;23.17;5.97;;;;;;;6.67;100.00;100150.88;5283296;28;20025;-72
2022/11/24 00:26:13;;;;;;;19.17;5.03;;;;;;;6.64;100.00;100158.66;5282845;28;20038;-72
2022/11/24 00:28:46;;;;;;;24.17;5.07;;;;;;;6.61;100.00;100150.06;5283063;28;20387;-72
2022/11/24 00:31:20;;;;;;;15.70;4.68;;;;;;;6.61;100.00;100155.22;5283403;28;20119;-72
2022/11/24 00:33:54;;;;;;;19.33;4.75;;;;;;;6.55;100.00;100157.00;5284211;28;20017;-73
2022/11/24 00:36:28;;;;;;;25.33;5.97;;;;;;;6.52;100.00;100146.66;5283396;28;20033;-74
2022/11/24 00:39:04;;;;;;;23.65;6.63;;;;;;;6.52;100.00;100153.53;5283464;28;20028;-74
2022/11/24 00:41:36;;;;;;;21.67;4.93;;;;;;;6.55;100.00;100149.22;5283737;28;20085;-74
2022/11/24 00:44:07;;;;;;;22.67;4.77;;;;;;;6.54;100.00;100149.25;5282115;28;20032;-73
2022/11/24 00:46:39;;;;;;;22.00;6.67;;;;;;;6.53;100.00;100158.72;5283281;28;20024;-72
2022/11/24 00:49:10;;;;;;;19.63;5.00;;;;;;;6.54;100.00;100157.84;5282168;28;20036;-72
2022/11/24 00:51:42;;;;;;;21.00;4.57;;;;;;;6.55;100.00;100159.59;5283256;28;20036;-73
2022/11/24 00:54:13;;;;;;;20.70;5.90;;;;;;;6.54;100.00;100160.44;5283249;28;20060;-73
2022/11/24 00:56:44;;;;;;;16.27;3.93;;;;;;;6.53;100.00;100161.31;5282031;28;20031;-73
2022/11/24 00:59:16;;;;;;;21.87;4.80;;;;;;;6.52;100.00;100161.31;5283490;28;20375;-72
2022/11/24 01:01:47;;;;;;;29.70;6.50;;;;;;;6.53;100.00;100166.50;5283220;28;20039;-72
2022/11/24 01:04:19;;;;;;;18.80;4.53;;;;;;;6.50;100.00;100171.69;5283713;28;20044;-72
2022/11/24 01:06:50;;;;;;;26.03;4.67;;;;;;;6.49;100.00;100176.91;5283531;28;20028;-73
2022/11/24 01:09:22;;;;;;;22.67;5.27;;;;;;;6.42;100.00;100172.59;5284934;28;20036;-72
2022/11/24 01:12:02;;;;;;;24.10;4.93;;;;;;;6.41;100.00;100183.81;5284438;28;20120;-72
2022/11/24 01:14:34;;;;;;;16.58;5.13;;;;;;;6.36;100.00;100183.88;5286012;28;20032;-72
2022/11/24 01:17:05;;;;;;;15.97;4.40;;;;;;;6.34;100.00;100178.69;5284869;28;20044;-72
2022/11/24 01:19:37;;;;;;;19.47;5.33;;;;;;;6.32;100.00;100172.66;5284872;28;20056;-72
2022/11/24 01:22:08;;;;;;;25.67;6.73;;;;;;;6.36;100.00;100179.53;5289948;28;20040;-72
2022/11/24 01:24:40;;;;;;;28.50;8.57;;;;;;;6.32;100.00;100184.75;5289739;28;20025;-72
2022/11/24 01:27:11;;;;;;;19.77;4.50;;;;;;;6.33;100.00;100186.47;5289579;28;20472;-73
2022/11/24 01:29:42;;;;;;;23.63;4.53;;;;;;;6.30;100.00;100179.56;5288319;28;20028;-72
2022/11/24 01:32:14;;;;;;;22.63;5.27;;;;;;;6.29;100.00;100195.09;5286606;28;20085;-71
2022/11/24 01:34:45;;;;;;;18.60;4.27;;;;;;;6.23;100.00;100195.13;5287436;28;20044;-72
2022/11/24 01:37:17;;;;;;;23.80;4.63;;;;;;;6.22;100.00;100198.59;5287464;28;20042;-72
2022/11/24 01:39:48;;;;;;;24.47;5.87;;;;;;;6.20;100.00;100194.28;5287217;28;20040;-72
2022/11/24 01:42:19;;;;;;;20.83;5.27;;;;;;;6.17;100.00;100198.63;5287117;28;20036;-72
2022/11/24 01:45:31;;;;;;;23.97;5.60;;;;;;;6.16;100.00;100202.91;5286438;28;20082;-72
2022/11/24 01:48:05;;;;;;;21.80;5.03;;;;;;;6.16;100.00;100213.25;5287012;28;20056;-72
2022/11/24 01:50:37;;;;;;;25.45;5.28;;;;;;;6.17;100.00;100203.78;5286240;28;20031;-72
2022/11/24 01:53:09;;;;;;;14.63;4.60;;;;;;;6.16;100.00;100209.81;5287058;28;20032;-72
2022/11/24 01:55:40;;;;;;;22.70;6.53;;;;;;;6.12;100.00;100211.56;5285375;28;20029;-72
2022/11/24 01:58:17;;;;;;;26.57;5.07;;;;;;;6.17;100.00;100206.38;5286765;28;20066;-72
2022/11/24 02:00:49;;;;;;;16.70;4.53;;;;;;;6.14;100.00;100214.16;5285365;28;20025;-73
2022/11/24 02:03:25;;;;;;;18.73;4.88;;;;;;;6.12;100.00;100219.34;5286189;28;20119;-72
2022/11/24 02:06:14;;;;;;;26.52;5.45;;;;;;;6.10;100.00;100217.59;5286478;28;20028;-72
2022/11/24 02:08:48;;;;;;;23.95;6.10;;;;;;;6.12;100.00;100223.66;5286140;28;20028;-72
2022/11/24 02:11:22;;;;;;;20.70;4.63;;;;;;;6.08;100.00;100227.97;5285904;28;20032;-73
2022/11/24 02:13:54;;;;;;;19.48;4.40;;;;;;;6.04;100.00;100228.84;5284697;28;20043;-72
2022/11/24 02:16:26;;;;;;;24.75;5.13;;;;;;;6.12;100.00;100237.44;5286447;28;20093;-72
2022/11/24 02:18:57;;;;;;;21.73;4.80;;;;;;;6.11;100.00;100240.91;5285349;28;20052;-72
2022/11/24 02:21:29;;;;;;;22.77;5.83;;;;;;;6.17;100.00;100240.03;5285784;28;20032;-72
2022/11/24 02:24:16;;;;;;;17.43;5.30;;;;;;;6.18;100.00;100239.16;5284578;28;20475;-72
2022/11/24 02:26:50;;;;;;;23.25;6.05;;;;;;;6.20;100.00;100238.28;5285893;28;20138;-71
2022/11/24 02:29:22;;;;;;;26.48;5.20;;;;;;;6.25;100.00;100245.16;5285043;28;20060;-72
2022/11/24 02:31:59;;;;;;;18.93;4.30;;;;;;;6.30;100.00;100239.09;5285950;28;20404;-72
2022/11/24 02:34:30;;;;;;;25.98;5.13;;;;;;;6.35;100.00;100244.25;5284291;28;20476;-71
2022/11/24 02:37:01;;;;;;;19.30;5.73;;;;;;;6.35;100.00;100246.84;5285102;28;20070;-72
2022/11/24 02:39:33;;;;;;;22.70;6.20;;;;;;;6.40;100.00;100247.69;5285877;28;20029;-72
2022/11/24 02:42:10;;;;;;;23.83;5.20;;;;;;;6.50;100.00;100251.09;5285255;28;20036;-72
2022/11/24 02:44:47;;;;;;;21.10;4.75;;;;;;;6.54;100.00;100252.81;5285207;28;20024;-72
2022/11/24 02:47:19;;;;;;;21.75;7.25;;;;;;;6.58;100.00;100254.50;5285404;28;20068;-72
2022/11/24 02:49:50;;;;;;;26.03;7.30;;;;;;;6.66;100.00;100242.38;5284991;28;20121;-72
2022/11/24 02:52:21;;;;;;;21.27;5.60;;;;;;;6.70;100.00;100254.44;5284749;28;20025;-73
2022/11/24 02:54:53;;;;;;;19.20;5.97;;;;;;;6.74;100.00;100253.56;5284618;28;20035;-72
2022/11/24 02:57:24;;;;;;;25.87;6.50;;;;;;;6.78;100.00;100253.53;5284590;28;20086;-72
2022/11/24 02:59:56;;;;;;;19.60;4.93;;;;;;;6.85;100.00;100257.81;5285088;28;20074;-72
2022/11/24 03:02:27;;;;;;;24.83;4.87;;;;;;;6.90;100.00;100263.84;5285104;28;20163;-73
2022/11/24 03:04:59;;;;;;;22.93;5.73;;;;;;;6.93;100.00;100271.59;5284271;28;20097;-72
2022/11/24 03:07:30;;;;;;;31.27;5.90;;;;;;;6.96;100.00;100268.13;5284050;28;20446;-73
2022/11/24 03:10:02;;;;;;;19.93;6.07;;;;;;;6.98;100.00;100269.84;5284355;28;20365;-72
2022/11/24 03:12:33;;;;;;;26.10;5.47;;;;;;;6.92;100.00;100268.16;5266289;28;20020;-71
2022/11/24 03:15:05;;;;;;;31.37;8.17;;;;;;;6.88;100.00;100274.22;5284028;28;20063;-72
2022/11/24 03:17:36;;;;;;;27.43;6.87;;;;;;;6.88;100.00;100270.78;5283887;28;20052;-72
2022/11/24 03:20:08;;;;;;;28.93;6.90;;;;;;;6.90;100.00;100272.47;5283791;28;20476;-73
2022/11/24 03:22:40;;;;;;;24.05;6.13;;;;;;;6.96;100.00;100275.91;5284333;28;20028;-72
2022/11/24 03:25:11;;;;;;;25.00;5.80;;;;;;;7.04;100.00;100274.97;5283570;28;20028;-72
2022/11/24 03:27:43;;;;;;;24.67;7.43;;;;;;;7.04;100.00;100281.91;5282922;28;20040;-72
2022/11/24 03:30:15;;;;;;;27.97;7.13;;;;;;;7.09;100.00;100277.53;5284242;28;20115;-72
2022/11/24 03:32:46;;;;;;;28.00;6.90;;;;;;;7.09;100.00;100280.13;5284090;28;20287;-72
2022/11/24 03:35:19;;;;;;;35.30;6.13;;;;;;;7.12;100.00;100287.91;5284325;28;20025;-72
2022/11/24 03:37:50;;;;;;;22.77;5.53;;;;;;;7.15;100.00;100287.88;5284133;28;20115;-72
2022/11/24 03:40:22;;;;;;;28.60;6.73;;;;;;;7.15;100.00;100287.88;5284147;28;20119;-72
2022/11/24 03:42:53;;;;;;;26.30;7.50;;;;;;;7.21;100.00;100284.38;5282763;28;20106;-72
2022/11/24 03:45:24;;;;;;;21.17;6.53;;;;;;;7.21;100.00;100279.19;5283665;28;20471;-72
2022/11/24 03:47:56;;;;;;;32.43;7.57;;;;;;;7.32;100.00;100285.16;5284527;28;20035;-72
2022/11/24 03:50:27;;;;;;;25.23;5.30;;;;;;;7.37;100.00;100287.72;5284143;28;20032;-72
2022/11/24 03:52:59;;;;;;;24.37;5.90;;;;;;;7.45;100.00;100288.50;5283833;28;20036;-72
2022/11/24 03:55:30;;;;;;;18.53;5.70;;;;;;;7.41;100.00;100284.22;5265843;28;20127;-72
2022/11/24 03:58:01;;;;;;;29.40;5.63;;;;;;;7.41;100.00;100289.41;5282446;28;20064;-72
2022/11/24 04:00:33;;;;;;;20.37;6.37;;;;;;;7.40;100.00;100290.28;5282500;28;20058;-72
2022/11/24 04:03:04;;;;;;;20.80;6.03;;;;;;;7.38;100.00;100284.25;5284463;28;20036;-72
2022/11/24 04:05:35;;;;;;;23.50;5.33;;;;;;;7.35;100.00;100284.28;5283618;28;20048;-72
2022/11/24 04:08:08;;;;;;;27.60;7.17;;;;;;;7.32;100.00;100285.16;5283732;28;20049;-72
2022/11/24 04:10:39;;;;;;;30.40;7.25;;;;;;;7.29;100.00;100291.22;5282184;28;20064;-73
2022/11/24 04:13:14;;;;;;;31.57;7.47;;;;;;;7.28;100.00;100302.47;5283307;28;20067;-72
2022/11/24 04:15:45;;;;;;;22.50;5.18;;;;;;;7.28;100.00;100307.66;5283527;28;20024;-73
2022/11/24 04:18:18;;;;;;;27.13;5.93;;;;;;;7.33;100.00;100315.41;5283698;28;20056;-72
2022/11/24 04:20:50;;;;;;;22.20;4.90;;;;;;;7.32;100.00;100325.78;5283152;28;20060;-72
2022/11/24 04:23:22;;;;;;;21.95;5.68;;;;;;;7.31;100.00;100324.94;5283362;28;20044;-72
2022/11/24 04:25:53;;;;;;;32.87;7.30;;;;;;;7.26;100.00;100327.56;5283524;28;20033;-72
2022/11/24 04:28:24;;;;;;;24.27;5.83;;;;;;;7.21;100.00;100344.00;5283137;28;20138;-73
2022/11/24 04:31:01;;;;;;;27.37;6.37;;;;;;;7.08;100.00;100345.78;5283615;28;20206;-73
2022/11/24 04:33:32;;;;;;;26.23;6.10;;;;;;;7.03;100.00;100350.16;5284642;28;20043;-74
2022/11/24 04:36:04;;;;;;;24.40;4.90;;;;;;;6.96;100.00;100357.09;5282669;28;20468;-74
2022/11/24 04:38:36;;;;;;;20.03;5.80;;;;;;;6.87;100.00;100344.16;5283434;28;20123;-75
2022/11/24 04:41:08;;;;;;;22.92;5.15;;;;;;;6.78;100.00;100350.28;5283121;28;20052;-75
2022/11/24 04:43:39;;;;;;;20.77;5.68;;;;;;;6.72;100.00;100353.72;5283236;28;20025;-75
2022/11/24 04:46:11;;;;;;;18.20;5.53;;;;;;;6.67;100.00;100363.25;5283425;28;20079;-75
2022/11/24 04:48:42;;;;;;;15.63;3.67;;;;;;;6.56;100.00;100354.66;5287496;28;20037;-75
2022/11/24 04:51:14;;;;;;;16.23;3.97;;;;;;;6.55;100.00;100352.94;5290285;28;20104;-74
2022/11/24 04:53:47;;;;;;;13.87;3.97;;;;;;;6.52;100.00;100361.59;5286233;28;20024;-74
2022/11/24 04:56:19;;;;;;;12.00;3.75;;;;;;;6.50;100.00;100359.84;5285219;28;20029;-75
2022/11/24 04:58:50;;;;;;;14.93;4.47;;;;;;;6.46;100.00;100359.00;5287843;28;20040;-74
2022/11/24 05:01:21;;;;;;;12.33;3.10;;;;;;;6.46;100.00;100358.16;5287381;28;20090;-74
2022/11/24 05:03:53;;;;;;;15.20;3.97;;;;;;;6.43;100.00;100363.34;5287747;28;20085;-75
2022/11/24 05:06:25;;;;;;;12.57;2.85;;;;;;;6.37;100.00;100362.47;5286487;28;20064;-74
2022/11/24 05:08:56;;;;;;;14.60;2.47;;;;;;;6.33;100.00;100357.31;5285902;28;20060;-74
2022/11/24 05:11:27;;;;;;;15.67;3.27;;;;;;;6.31;100.00;100359.91;5287593;28;20033;-74
2022/11/24 05:14:00;;;;;;;13.97;3.10;;;;;;;6.30;100.00;100362.50;5287292;28;20089;-74
2022/11/24 05:16:32;;;;;;;16.70;2.95;;;;;;;6.27;100.00;100375.44;5287256;28;20025;-74
2022/11/24 05:19:03;;;;;;;11.90;2.80;;;;;;;6.28;100.00;100367.69;5287709;28;20056;-74
2022/11/24 05:21:35;;;;;;;13.13;3.00;;;;;;;6.32;100.00;100373.72;5286977;28;20375;-74
2022/11/24 05:24:07;;;;;;;13.45;3.72;;;;;;;6.32;100.00;100377.16;5286858;28;20111;-72
2022/11/24 05:26:38;;;;;;;11.77;3.60;;;;;;;6.35;100.00;100381.47;5286692;28;20028;-72
2022/11/24 05:29:09;;;;;;;15.00;3.30;;;;;;;6.40;100.00;100384.91;5287228;28;20120;-72
2022/11/24 05:31:41;;;;;;;13.40;3.27;;;;;;;6.42;100.00;100385.75;5286541;28;20025;-72
2022/11/24 05:34:13;;;;;;;13.70;4.43;;;;;;;6.45;100.00;100388.34;5286466;28;20067;-72
2022/11/24 05:36:53;;;;;;;18.35;4.50;;;;;;;6.51;100.00;100398.69;5286791;28;20050;-72
2022/11/24 05:39:24;;;;;;;18.38;3.80;;;;;;;6.52;100.00;100395.25;5286830;28;20033;-72
2022/11/24 05:41:55;;;;;;;29.37;5.97;;;;;;;6.59;100.00;100398.69;5286262;28;20089;-73
2022/11/24 05:44:27;;;;;;;18.07;5.60;;;;;;;6.63;100.00;100391.75;5286674;28;20028;-73
2022/11/24 05:46:58;;;;;;;21.70;5.17;;;;;;;6.70;100.00;100409.03;5286211;28;20032;-72
2022/11/24 05:49:29;;;;;;;28.77;6.13;;;;;;;6.79;100.00;100403.78;5286273;28;20032;-72
2022/11/24 05:52:01;;;;;;;25.87;5.00;;;;;;;6.87;100.00;100409.78;5286271;28;20080;-72
2022/11/24 05:54:32;;;;;;;20.77;5.63;;;;;;;6.93;100.00;100414.97;5286396;28;20086;-73
2022/11/24 05:57:04;;;;;;;24.30;5.57;;;;;;;6.98;100.00;100421.88;5285813;28;20029;-72
2022/11/24 05:59:35;;;;;;;27.13;5.57;;;;;;;6.98;100.00;100425.31;5286148;28;20024;-72
2022/11/24 06:02:08;;;;;;;21.33;4.90;;;;;;;7.00;100.00;100422.72;5286355;28;20271;-72
2022/11/24 06:04:40;;;;;;;26.65;6.03;;;;;;;7.04;100.00;100432.22;5285698;28;20083;-72
2022/11/24 06:07:12;;;;;;;21.53;4.93;;;;;;;7.06;100.00;100443.44;5285054;28;20475;-72
2022/11/24 06:09:43;;;;;;;16.92;4.72;;;;;;;7.06;100.00;100452.06;5285591;28;20032;-72
2022/11/24 06:12:15;;;;;;;19.43;6.67;;;;;;;7.16;100.00;100454.63;5285709;28;20415;-72
2022/11/24 06:14:46;;;;;;;19.17;5.00;;;;;;;7.14;100.00;100456.38;5285629;28;20530;-71
2022/11/24 06:17:18;;;;;;;17.93;4.07;;;;;;;7.10;100.00;100452.94;5285495;28;20044;-72
2022/11/24 06:19:50;;;;;;;13.73;3.70;;;;;;;7.15;100.00;100458.97;5286079;28;20062;-72
2022/11/24 06:22:21;;;;;;;23.85;5.22;;;;;;;7.15;100.00;100471.03;5286353;28;20464;-72
2022/11/24 06:24:53;;;;;;;13.27;4.67;;;;;;;7.15;100.00;100471.91;5285693;28;20035;-72
2022/11/24 06:27:25;;;;;;;15.07;3.87;;;;;;;7.15;100.00;100484.00;5286121;28;20521;-72
2022/11/24 06:29:56;;;;;;;16.77;4.57;;;;;;;7.14;100.00;100487.47;5284230;28;20055;-73
2022/11/24 06:32:28;;;;;;;9.30;3.03;;;;;;;7.12;100.00;100496.09;5285136;28;20028;-73
2022/11/24 06:34:59;;;;;;;11.60;2.83;;;;;;;7.08;100.00;100493.53;5285268;28;20025;-73
2022/11/24 06:37:31;;;;;;;13.13;2.73;;;;;;;7.11;100.00;100504.75;5283697;28;20086;-72
2022/11/24 06:40:03;;;;;;;16.73;3.90;;;;;;;7.12;100.00;100505.63;5285246;28;20032;-72
2022/11/24 06:42:36;;;;;;;12.75;3.05;;;;;;;7.11;100.00;100522.03;5284564;28;20043;-71
2022/11/24 06:45:07;;;;;;;13.02;3.35;;;;;;;7.12;100.00;100521.19;5285088;28;20448;-71
2022/11/24 06:47:39;;;;;;;14.40;3.53;;;;;;;7.08;100.00;100514.25;5284596;28;20039;-71
2022/11/24 06:50:10;;;;;;;11.03;2.73;;;;;;;7.02;100.00;100540.19;5284661;28;20058;-72
2022/11/24 06:52:41;;;;;;;12.00;2.77;;;;;;;6.94;100.00;100538.50;5285229;28;20107;-70
2022/11/24 06:55:13;;;;;;;6.37;2.30;;;;;;;6.86;100.00;100540.22;5282984;28;20033;-71
2022/11/24 06:57:44;;;;;;;12.77;2.63;;;;;;;6.76;100.00;100543.69;5284431;28;20025;-71
2022/11/24 07:00:16;;;;;;;9.73;2.80;;;;;;;6.67;100.00;100544.56;5284087;28;20048;-71
2022/11/24 07:02:48;;;;;;;14.75;3.00;;;;;;;6.60;100.00;100549.75;5284082;28;20066;-71
2022/11/24 07:05:19;;;;;;;9.97;2.73;;;;;;;6.57;100.00;100555.81;5284123;28;20060;-71
2022/11/24 07:07:50;;;;;;;9.43;2.43;;;;;;;6.56;100.00;100567.00;5284608;28;20035;-71
2022/11/24 07:10:22;;;;;;;14.57;3.27;;;;;;;6.52;100.00;100576.53;5284550;28;20025;-71
2022/11/24 07:12:53;;;;;;;12.93;3.13;;;;;;;6.48;100.00;100587.72;5283596;28;20036;-71
2022/11/24 07:15:27;;;;;;;9.32;3.33;;;;;;;6.51;100.00;100598.09;5284315;28;20040;-71
2022/11/24 07:17:58;;;;;;;6.43;2.20;;;;;;;6.54;100.00;100598.09;5283749;28;20094;-71
2022/11/24 07:20:30;;;;;;;8.97;2.60;;;;;;;6.57;100.00;100612.78;5284155;28;20060;-71
2022/11/24 07:23:01;;;;;;;6.87;2.40;;;;;;;6.64;100.00;100601.56;5284294;28;20437;-71
2022/11/24 07:25:32;;;;;;;8.70;2.50;;;;;;;6.65;100.00;100615.34;5284019;28;20479;-72
2022/11/24 07:28:04;;;;;;;9.77;3.07;;;;;;;6.64;100.00;100622.28;5284239;28;20056;-71
2022/11/24 07:30:35;;;;;;;9.40;3.27;;;;;;;6.62;100.00;100628.31;5284112;28;20035;-71
2022/11/24 07:33:07;;;;;;;11.37;2.57;;;;;;;6.55;100.00;100617.06;5284258;28;20033;-71
2022/11/24 07:35:38;;;;;;;7.97;2.30;;;;;;;6.47;100.00;100626.56;5284629;28;20436;-71
2022/11/24 07:38:09;;;;;;;6.17;2.47;;;;;;;6.42;100.00;100630.88;5284459;28;20057;-71
2022/11/24 07:40:41;;;;;;;12.67;2.50;;;;;;;6.42;100.00;100630.88;5282454;28;20089;-71
2022/11/24 07:43:12;;;;;;;10.53;3.40;;;;;;;6.35;100.00;100637.78;5284208;28;20036;-71
2022/11/24 07:45:50;;;;;;;10.67;3.00;;;;;;;6.33;100.00;100644.69;5284170;28;20029;-72
2022/11/24 07:48:22;;;;;;;10.73;3.38;;;;;;;6.27;100.00;100653.28;5283459;28;20376;-72
2022/11/24 07:50:53;;;;;;;8.47;2.20;;;;;;;6.30;100.00;100642.06;5283272;28;20029;-72
2022/11/24 07:53:25;;;;;;;16.60;3.20;;;;;;;6.30;100.00;100655.03;5283255;28;20086;-72
2022/11/24 07:55:59;;;;;;;12.37;3.00;;;;;;;6.28;100.00;100655.03;5283606;28;20066;-72
2022/11/24 07:58:33;;;;;;;13.93;2.78;;;;;;;6.29;100.00;100661.06;5284003;28;20406;-72
2022/11/24 08:01:13;;;;;;;12.23;2.58;;;;;;;6.35;100.00;100666.25;5283245;28;20031;-71
2022/11/24 08:03:45;;;;;;;13.02;4.18;;;;;;;6.39;100.00;100666.25;5282625;28;20466;-72
2022/11/24 08:06:17;;;;;;;12.77;2.53;;;;;;;6.43;100.00;100674.91;5283550;28;20036;-71
2022/11/24 08:08:48;;;;;;;16.88;3.83;;;;;;;6.48;100.00;100686.13;5283465;28;20040;-72
2022/11/24 08:11:20;;;;;;;10.90;3.03;;;;;;;6.48;100.00;100691.31;5284488;28;20123;-71
2022/11/24 08:13:52;;;;;;;10.10;2.77;;;;;;;6.49;100.00;100679.25;5285419;28;20036;-71
2022/11/24 08:16:23;;;;;;;16.07;3.13;;;;;;;6.55;100.00;100687.00;5284313;28;20089;-72
2022/11/24 08:18:55;;;;;;;10.50;3.40;;;;;;;6.56;100.00;100696.50;5283892;28;20053;-71
2022/11/24 08:21:26;;;;;;;8.77;2.60;;;;;;;6.61;100.00;100705.16;5283584;28;20105;-72
2022/11/24 08:23:57;;;;;;;14.90;2.80;;;;;;;6.63;100.00;100708.59;5283206;28;20023;-71
2022/11/24 08:26:29;;;;;;;11.07;2.67;;;;;;;6.70;100.00;100710.34;5283324;28;20111;-71
2022/11/24 08:29:00;;;;;;;11.70;2.77;;;;;;;6.81;100.00;100709.50;5283091;28;20033;-71
2022/11/24 08:31:33;;;;;;;13.57;3.30;;;;;;;6.90;100.00;100710.38;5287168;28;20040;-72
2022/11/24 08:34:05;;;;;;;13.95;3.88;;;;;;;7.01;100.00;100709.53;5287710;28;20507;-71
2022/11/24 08:36:36;;;;;;;11.07;2.77;;;;;;;7.08;100.00;100721.63;5287607;28;20120;-72
2022/11/24 08:39:10;;;;;;;12.57;3.33;;;;;;;7.17;100.00;100723.38;5287546;28;20032;-70
2022/11/24 08:41:42;;;;;;;11.85;3.42;;;;;;;7.29;100.00;100732.00;5287720;28;20028;-71
2022/11/24 08:44:17;;;;;;;12.37;2.70;;;;;;;7.36;100.00;100745.84;5287763;28;20431;-72
2022/11/24 08:46:48;;;;;;;11.93;3.10;;;;;;;7.46;99.36;100747.53;5287611;28;20020;-72
2022/11/24 08:49:21;;;;;;;10.07;2.70;;;;;;;7.60;99.39;100754.44;5287392;28;20029;-72
2022/11/24 08:51:52;;;;;;;10.45;3.00;;;;;;;7.65;98.25;100751.00;5287239;28;20519;-72
2022/11/24 08:54:24;;;;;;;9.03;3.10;;;;;;;7.71;97.69;100768.31;5287208;28;20120;-72
2022/11/24 08:56:56;;;;;;;11.75;4.25;;;;;;;7.76;96.47;100766.56;5287161;28;20375;-72
2022/11/24 08:59:27;;;;;;;8.20;2.40;;;;;;;7.92;97.17;100770.00;5287197;28;20033;-71
2022/11/24 09:01:58;;;;;;;9.50;3.03;;;;;;;8.06;95.97;100775.13;5287099;28;20036;-72
2022/11/24 09:04:30;;;;;;;15.37;3.83;;;;;;;8.13;94.30;100775.97;5286933;28;20501;-72
2022/11/24 09:07:01;;;;;;;9.60;3.00;;;;;;;8.18;95.16;100784.63;5287228;28;20379;-73
2022/11/24 09:09:32;;;;;;;15.30;4.77;;;;;;;8.32;94.35;100780.28;5285390;28;20516;-72
2022/11/24 09:12:04;;;;;;;10.30;2.90;;;;;;;8.52;94.67;100780.19;5286599;28;20028;-72
2022/11/24 09:14:35;;;;;;;14.23;3.83;;;;;;;8.43;93.33;100777.63;5286896;28;20028;-71
2022/11/24 09:17:07;;;;;;;14.97;4.53;;;;;;;8.50;92.76;100787.16;5286922;28;20103;-72
2022/11/24 09:19:38;;;;;;;16.63;4.47;;;;;;;8.69;93.03;100794.84;5287323;28;20040;-72
2022/11/24 09:22:09;;;;;;;12.40;3.03;;;;;;;8.77;91.56;100800.88;5286570;28;20036;-72
2022/11/24 09:24:41;;;;;;;12.77;3.60;;;;;;;8.66;91.78;100803.53;5286692;28;20032;-72
2022/11/24 09:27:12;;;;;;;16.10;3.77;;;;;;;8.99;90.75;100803.38;5286297;28;20097;-72
2022/11/24 09:29:43;;;;;;;14.20;4.37;;;;;;;9.02;89.82;100808.56;5286224;28;20043;-72
2022/11/24 09:32:15;;;;;;;13.70;4.33;;;;;;;9.06;89.17;100810.25;5286149;28;20071;-72
2022/11/24 09:34:46;;;;;;;9.70;3.40;;;;;;;8.99;89.04;100817.22;5286652;28;20060;-72
2022/11/24 09:37:17;;;;;;;17.03;3.90;;;;;;;9.02;89.34;100812.00;5288821;28;20460;-72
2022/11/24 09:39:49;;;;;;;14.93;4.17;;;;;;;9.25;88.95;100819.66;5286533;28;20025;-72
2022/11/24 09:42:26;;;;;;;18.77;4.33;;;;;;;9.53;88.20;100813.38;5285224;28;20033;-72
2022/11/24 09:44:57;;;;;;;15.38;3.97;;;;;;;9.64;86.88;100820.25;5285898;28;20093;-72
2022/11/24 09:47:47;;;;;;;14.30;4.17;;;;;;;9.96;86.77;100823.41;5286629;28;20028;-72
2022/11/24 09:50:32;;;;;;;14.68;3.63;;;;;;;10.06;85.60;100834.59;5286461;28;20043;-72
2022/11/24 09:53:31;;;;;;;11.15;3.15;;;;;;;10.00;84.40;100849.41;5285973;28;20028;-72
2022/11/24 09:56:20;;;;;;;13.32;4.32;;;;;;;10.15;85.04;100852.75;5285991;28;20070;-73
2022/11/24 09:59:04;;;;;;;15.05;4.05;;;;;;;10.27;83.83;100852.66;5285830;28;20028;-72
2022/11/24 10:01:39;;;;;;;19.13;3.92;;;;;;;10.50;82.65;100867.19;5285875;28;20487;-72
2022/11/24 10:04:21;;;;;;;13.32;4.07;;;;;;;10.35;82.53;100849.97;5284443;28;20033;-71
2022/11/24 10:06:55;;;;;;;12.85;4.50;;;;;;;10.27;nan;100852.66;5285164;28;20029;-73
2022/11/24 10:09:47;;;;;;;12.40;4.22;;;;;;;10.84;81.04;100861.59;5285571;28;20464;-72
2022/11/24 10:12:26;;;;;;;16.60;4.05;;;;;;;10.74;79.52;100861.69;5253968;28;20048;-72
2022/11/24 10:15:21;;;;;;;15.38;4.25;;;;;;;10.86;79.49;100873.69;5286471;28;20115;-73
2022/11/24 10:17:52;;;;;;;19.65;5.28;;;;;;;10.74;78.95;100863.44;5284962;28;20063;-72
2022/11/24 10:20:29;;;;;;;15.13;3.90;;;;;;;11.23;78.98;100875.81;5285160;28;20464;-72
2022/11/24 10:23:18;;;;;;;12.82;3.78;;;;;;;11.29;77.13;100885.31;5286004;28;20039;-73
2022/11/24 10:25:57;;;;;;;14.27;4.00;;;;;;;11.70;77.86;100882.97;5286874;28;20020;-72
2022/11/24 10:28:41;;;;;;;16.60;4.50;;;;;;;11.94;76.74;100886.97;5286071;28;20135;-71
2022/11/24 10:31:33;;;;;;;11.95;4.50;;;;;;;12.49;74.09;100879.88;5285148;28;20120;-72
2022/11/24 10:34:24;;;;;;;14.05;4.55;;;;;;;12.80;73.73;100894.97;5285700;28;20464;-73
2022/11/24 10:37:10;;;;;;;13.25;4.25;;;;;;;12.51;72.59;100897.28;5285240;28;20025;-72
2022/11/24 10:39:59;;;;;;;12.15;4.10;;;;;;;12.38;72.03;100900.97;5285765;28;20468;-72
2022/11/24 10:42:36;;;;;;;12.95;4.20;;;;;;;11.89;71.82;100904.44;5285302;28;20077;-73
2022/11/24 10:45:13;;;;;;;11.15;4.90;;;;;;;12.00;72.23;100906.00;5284556;28;20024;-72
2022/11/24 10:47:45;;;;;;;13.13;4.03;;;;;;;12.17;71.62;100897.88;5284923;28;20020;-72
2022/11/24 10:50:19;;;;;;;13.05;3.60;;;;;;;12.04;72.10;100904.19;5283397;28;20089;-72
2022/11/24 10:53:27;;;;;;;13.30;3.42;;;;;;;12.53;72.00;100890.25;5283553;28;20028;-72
2022/11/24 10:56:03;;;;;;;12.77;4.43;;;;;;;12.35;70.39;100903.69;5283922;28;20043;-72
2022/11/24 10:58:36;;;;;;;13.98;4.38;;;;;;;12.62;70.51;100889.19;5284545;28;20064;-72
2022/11/24 11:01:13;;;;;;;10.70;3.95;;;;;;;13.23;68.61;100894.06;5284608;28;20040;-72
2022/11/24 11:03:48;;;;;;;14.35;4.53;;;;;;;14.06;66.29;100891.28;5284565;28;20029;-72
2022/11/24 11:06:30;;;;;;;12.65;4.30;;;;;;;14.39;64.90;100900.00;5284251;28;20426;-72
2022/11/24 11:09:07;;;;;;;13.90;3.95;;;;;;;14.51;63.92;100891.81;5285114;28;20052;-72
2022/11/24 11:11:40;;;;;;;12.32;3.65;;;;;;;14.05;63.39;100887.78;5284847;28;20028;-72
2022/11/24 11:14:12;;;;;;;12.95;4.35;;;;;;;14.80;62.84;100889.31;5284302;28;20029;-71
2022/11/24 11:16:54;;;;;;;12.87;4.40;;;;;;;14.75;62.13;100892.91;5284500;28;20383;-72
2022/11/24 11:19:43;;;;;;;14.32;3.65;;;;;;;14.87;61.17;100891.69;5283757;28;20028;-72
2022/11/24 11:22:25;;;;;;;12.27;4.25;;;;;;;15.60;59.67;100881.63;5284449;28;20031;-72
2022/11/24 11:25:17;;;;;;;15.48;4.80;;;;;;;15.82;57.80;100885.28;5284481;28;20115;-71
2022/11/24 11:27:48;;;;;;;12.57;3.67;;;;;;;15.52;57.74;100886.25;5284360;28;20035;-72
2022/11/24 11:30:23;;;;;;;11.60;3.97;;;;;;;15.47;57.53;100896.91;5282762;28;20467;-72
2022/11/24 11:32:58;;;;;;;15.32;4.60;;;;;;;15.81;56.55;100898.50;5283849;28;20021;-72
2022/11/24 11:35:32;;;;;;;16.42;4.82;;;;;;;15.16;57.28;100897.00;5283949;28;20035;-72
2022/11/24 11:38:05;;;;;;;12.73;3.95;;;;;;;15.77;56.92;100910.03;5283340;28;20055;-72
2022/11/24 11:40:41;;;;;;;15.43;4.75;;;;;;;15.73;56.79;100888.22;5284177;28;20127;-72
2022/11/24 11:43:34;;;;;;;13.05;4.45;;;;;;;15.96;56.04;100891.88;5286078;28;20068;-71
2022/11/24 11:46:12;;;;;;;11.93;4.22;;;;;;;16.13;55.47;100891.31;5286290;28;20035;-72
2022/11/24 11:48:45;;;;;;;12.85;4.15;;;;;;;16.29;54.20;100897.75;5282797;28;20111;-72